»·PEaware :: N642SP KCRQ-KSNA

N642SP :: KCRQ-KSNA

FLIGHT INFORMATION

Flight Status: Arrived
Operator: Privately registered:
United States
More flights under this callsign
Pilot: Wes T. (5776)
Aircraft: CESSNA 172 SKYHAWK
(C172)
More flights by this aircraft type
Origin: KCRQ McClellan-Palomar
United States
Destination: KSNA John Wayne-Orange Co
United States
More flights between these airports :: More routes between these airports
Route: OCN V23 SLI
File this flight plan on PilotEdge
Remarks:
Altitude:
(Current/Filed)
6,000ft
Speed:
(Current/Filed)
109kts
Departed: 04-May-17 05:31 PM
Arrived: 04-May-17 06:32 PM
Distance/Time
Traveled:
44nm/1:00
Distance/Time
To Go:
Arrived

Flight Plot

Page will automatically refresh every two minutes.


Map Options




Map Legend


Flown Route
Filed Route
Departure Airport
Arrival Airport
Navaid (VOR, NDB)
Fix

Horizontal Profiles

Position Reports

Time Latitude Longitude Heading Altitude Ground
Speed
04-May-17 16:25 33.125583 -117.283384 259 334ft 0kts
04-May-17 16:26 33.125583 -117.283386 259 334ft 0kts
04-May-17 16:27 33.125582 -117.283389 259 334ft 0kts
04-May-17 16:28 33.125582 -117.283391 259 334ft 0kts
04-May-17 16:29 33.125582 -117.283393 259 334ft 0kts
04-May-17 16:30 33.125581 -117.283396 259 334ft 0kts
04-May-17 16:31 33.125581 -117.283398 259 334ft 0kts
04-May-17 16:32 33.125581 -117.283400 259 334ft 0kts
04-May-17 16:33 33.125580 -117.283401 259 334ft 0kts
04-May-17 16:34 33.125580 -117.283403 259 334ft 0kts
04-May-17 16:35 33.125580 -117.283405 259 334ft 0kts
04-May-17 16:36 33.125580 -117.283406 259 334ft 0kts
04-May-17 16:37 33.125580 -117.283406 259 334ft 0kts
04-May-17 16:38 33.125580 -117.283406 259 334ft 0kts
04-May-17 16:39 33.125580 -117.283406 259 334ft 0kts
04-May-17 16:40 33.125580 -117.283406 259 334ft 0kts
04-May-17 16:41 33.125580 -117.283406 259 334ft 0kts
04-May-17 16:42 33.125580 -117.283407 259 334ft 0kts
04-May-17 16:43 33.125580 -117.283407 259 334ft 0kts
04-May-17 16:44 33.125579 -117.283407 259 334ft 0kts
04-May-17 16:45 33.125579 -117.283407 259 334ft 0kts
04-May-17 16:46 33.125579 -117.283407 259 334ft 0kts
04-May-17 16:47 33.125579 -117.283408 259 334ft 0kts
04-May-17 16:48 33.125579 -117.283408 259 334ft 0kts
04-May-17 16:49 33.125579 -117.283408 259 334ft 0kts
04-May-17 16:50 33.125579 -117.283408 259 334ft 0kts
04-May-17 16:51 33.125579 -117.283409 259 334ft 0kts
04-May-17 16:52 33.125579 -117.283411 259 334ft 0kts
04-May-17 16:53 33.125579 -117.283411 259 334ft 0kts
04-May-17 16:54 33.125579 -117.283413 259 334ft 0kts
04-May-17 16:55 33.125578 -117.283415 259 334ft 0kts
04-May-17 16:56 33.125578 -117.283417 259 334ft 0kts
04-May-17 16:57 33.125578 -117.283419 259 334ft 0kts
04-May-17 16:58 33.125577 -117.283421 259 334ft 0kts
04-May-17 16:59 33.125577 -117.283423 259 334ft 0kts
04-May-17 17:00 33.125577 -117.283425 259 334ft 0kts
04-May-17 17:01 33.125577 -117.283427 259 334ft 0kts
04-May-17 17:02 33.125576 -117.283429 259 334ft 0kts
04-May-17 17:03 33.125576 -117.283431 259 334ft 0kts
04-May-17 17:04 33.125576 -117.283433 259 334ft 0kts
04-May-17 17:05 33.125575 -117.283435 259 334ft 0kts
04-May-17 17:06 33.125575 -117.283437 259 334ft 0kts
04-May-17 17:07 33.125575 -117.283439 259 334ft 0kts
04-May-17 17:08 33.125575 -117.283440 259 334ft 0kts
04-May-17 17:09 33.125574 -117.283442 259 334ft 0kts
04-May-17 17:10 33.125574 -117.283444 259 334ft 0kts
04-May-17 17:11 33.125574 -117.283446 259 334ft 0kts
04-May-17 17:12 33.125993 -117.283412 77 334ft 0kts
04-May-17 17:13 33.125993 -117.283411 77 334ft 0kts
04-May-17 17:14 33.125994 -117.283408 77 334ft 0kts
04-May-17 17:15 33.125994 -117.283406 77 334ft 0kts
04-May-17 17:16 33.125995 -117.283403 77 334ft 0kts
04-May-17 17:17 33.125995 -117.283400 77 334ft 0kts
04-May-17 17:18 33.125996 -117.283397 77 334ft 0kts
04-May-17 17:19 33.125996 -117.283394 77 334ft 0kts
04-May-17 17:20 33.125997 -117.283391 77 334ft 0kts
04-May-17 17:21 33.125998 -117.283388 77 334ft 0kts
04-May-17 17:22 33.125998 -117.283385 77 334ft 0kts
04-May-17 17:23 33.125999 -117.283382 77 334ft 0kts
04-May-17 17:24 33.125999 -117.283378 77 334ft 0kts
04-May-17 17:25 33.126000 -117.283375 77 334ft 0kts
04-May-17 17:26 33.126360 -117.283262 345 334ft 7kts
04-May-17 17:27 33.127374 -117.279114 79 334ft 22kts
04-May-17 17:28 33.128362 -117.272880 78 334ft 15kts
04-May-17 17:29 33.128581 -117.272176 278 334ft 0kts
04-May-17 17:30 33.128583 -117.272189 278 334ft 0kts
04-May-17 17:31 33.128584 -117.272193 278 334ft 0kts
04-May-17 17:32 33.129494 -117.272625 269 334ft 6kts
04-May-17 17:33 33.126910 -117.287028 263 813ft 58kts
04-May-17 17:34 33.124540 -117.309003 263 1531ft 78kts
04-May-17 17:35 33.120921 -117.338256 263 2158ft 96kts
04-May-17 17:36 33.116104 -117.372066 263 2764ft 102kts
04-May-17 17:37 33.119465 -117.400639 347 3343ft 96kts
04-May-17 17:38 33.145814 -117.403591 350 3961ft 94kts
04-May-17 17:39 33.169666 -117.407118 348 4723ft 78kts
04-May-17 17:40 33.189597 -117.410119 347 5494ft 65kts
04-May-17 17:41 33.206929 -117.412722 348 6045ft 73kts
04-May-17 17:42 33.233333 -117.416626 349 6036ft 104kts
04-May-17 17:43 33.258830 -117.438926 317 6024ft 122kts
04-May-17 17:44 33.281244 -117.464869 317 6028ft 100kts
04-May-17 17:45 33.300781 -117.487587 317 6029ft 96kts
04-May-17 17:46 33.320018 -117.509994 317 6033ft 95kts
04-May-17 17:47 33.338704 -117.531766 317 6091ft 94kts
04-May-17 17:48 33.357631 -117.553840 317 6090ft 96kts
04-May-17 17:49 33.376691 -117.576083 317 6090ft 96kts
04-May-17 17:50 33.397488 -117.600355 317 6096ft 115kts
04-May-17 17:51 33.419270 -117.625841 317 6087ft 100kts
04-May-17 17:52 33.438769 -117.648630 317 6087ft 96kts
04-May-17 17:53 33.458178 -117.671324 317 6093ft 103kts
04-May-17 17:54 33.479550 -117.696348 317 6094ft 116kts
04-May-17 17:55 33.502855 -117.723680 317 6098ft 120kts
04-May-17 17:56 33.525735 -117.750539 317 6089ft 106kts
04-May-17 17:57 33.548178 -117.776848 317 6089ft 121kts
04-May-17 17:58 33.572492 -117.805447 317 6088ft 122kts
04-May-17 17:59 33.599416 -117.823813 313 6088ft 111kts
04-May-17 18:00 33.621063 -117.851228 316 6091ft 115kts
04-May-17 18:01 33.643901 -117.879809 315 6093ft 122kts
04-May-17 18:02 33.666588 -117.908200 316 6091ft 114kts
04-May-17 18:03 33.685902 -117.940200 302 6088ft 123kts
04-May-17 18:04 33.702608 -117.976281 302 6088ft 124kts
04-May-17 18:05 33.718248 -118.010462 302 6071ft 107kts
04-May-17 18:06 33.733310 -118.043943 302 6078ft 121kts
04-May-17 18:07 33.748373 -118.077507 302 6073ft 103kts
04-May-17 18:08 33.763242 -118.109066 306 5917ft 119kts
04-May-17 18:09 33.793179 -118.100248 57 4885ft 142kts
04-May-17 18:10 33.785947 -118.053923 80 3796ft 145kts
04-May-17 18:11 33.798746 -118.014693 58 3966ft 128kts
04-May-17 18:12 33.815299 -117.975483 61 4111ft 134kts
04-May-17 18:13 33.831245 -117.936004 61 4104ft 129kts
04-May-17 18:14 33.846289 -117.898564 60 4106ft 121kts
04-May-17 18:15 33.860344 -117.863566 60 4103ft 110kts
04-May-17 18:16 33.873898 -117.829829 60 4112ft 114kts
04-May-17 18:17 33.888484 -117.793459 61 4105ft 125kts
04-May-17 18:18 33.903422 -117.755480 61 4109ft 127kts
04-May-17 18:19 33.917714 -117.719164 61 4113ft 113kts
04-May-17 18:20 33.941586 -117.695461 26 4108ft 114kts
04-May-17 18:21 33.968963 -117.688503 304 3839ft 105kts
04-May-17 18:22 33.950214 -117.701886 174 3516ft 103kts
04-May-17 18:23 33.922603 -117.711461 213 3553ft 115kts
04-May-17 18:24 33.896913 -117.728691 212 3540ft 92kts
04-May-17 18:25 33.875097 -117.742344 211 3543ft 86kts
04-May-17 18:26 33.852264 -117.756949 210 3544ft 101kts
04-May-17 18:27 33.824233 -117.774798 210 3246ft 121kts
04-May-17 18:28 33.796320 -117.792536 210 2672ft 101kts
04-May-17 18:29 33.772464 -117.807366 210 2164ft 94kts
04-May-17 18:30 33.749329 -117.822098 211 1675ft 93kts
04-May-17 18:31 33.725571 -117.837192 210 1099ft 100kts
04-May-17 18:32 33.705760 -117.849732 214 731ft 68kts
04-May-17 18:33 33.690374 -117.859453 213 319ft 58kts
04-May-17 18:34 33.678173 -117.867030 204 59ft 25kts
04-May-17 18:35 33.675728 -117.869641 298 59ft 0kts
04-May-17 18:36 33.675196 -117.870839 227 59ft 9kts
04-May-17 18:37 33.675611 -117.871273 33 59ft 0kts
04-May-17 18:38 33.675611 -117.871273 33 59ft 0kts

Navigation Log

Ident Type
Flight plan parsing failed, navigation log unavailable